sensor_id;sensor_type;location;lat;lon;timestamp;P1;P2;P0
23240;PMS7003;11789;53.482;9.862;2024-03-25T00:01:09;3.50;0.50;0.00
23240;PMS7003;11789;53.482;9.862;2024-03-25T00:03:34;1.00;1.00;0.50
23240;PMS7003;11789;53.482;9.862;2024-03-25T00:06:00;0.50;0.50;0.00
23240;PMS7003;11789;53.482;9.862;2024-03-25T00:08:26;1.50;0.75;0.00
23240;PMS7003;11789;53.482;9.862;2024-03-25T00:10:51;0.75;0.75;0.00
23240;PMS7003;11789;53.482;9.862;2024-03-25T00:13:17;2.00;2.00;1.00
23240;PMS7003;11789;53.482;9.862;2024-03-25T00:15:42;3.75;1.00;1.00
23240;PMS7003;11789;53.482;9.862;2024-03-25T00:18:09;0.00;0.00;0.00
23240;PMS7003;11789;53.482;9.862;2024-03-25T00:20:36;4.00;1.00;0.25
23240;PMS7003;11789;53.482;9.862;2024-03-25T00:23:01;1.00;1.00;1.00
23240;PMS7003;11789;53.482;9.862;2024-03-25T00:25:27;1.50;1.00;1.00
23240;PMS7003;11789;53.482;9.862;2024-03-25T00:27:52;1.00;1.00;1.00
23240;PMS7003;11789;53.482;9.862;2024-03-25T00:30:18;1.00;1.00;1.00
23240;PMS7003;11789;53.482;9.862;2024-03-25T00:32:44;2.00;2.00;1.00
23240;PMS7003;11789;53.482;9.862;2024-03-25T00:35:10;1.75;1.75;1.00
23240;PMS7003;11789;53.482;9.862;2024-03-25T00:37:35;1.00;1.00;1.00
23240;PMS7003;11789;53.482;9.862;2024-03-25T00:40:01;1.00;1.00;0.50
23240;PMS7003;11789;53.482;9.862;2024-03-25T00:42:26;3.00;3.00;1.00
23240;PMS7003;11789;53.482;9.862;2024-03-25T00:44:52;2.00;1.00;0.00
23240;PMS7003;11789;53.482;9.862;2024-03-25T00:47:17;1.00;1.00;1.00
23240;PMS7003;11789;53.482;9.862;2024-03-25T00:49:43;3.25;1.50;1.00
23240;PMS7003;11789;53.482;9.862;2024-03-25T00:52:08;1.00;1.00;0.25
23240;PMS7003;11789;53.482;9.862;2024-03-25T00:54:34;1.00;1.00;0.50
23240;PMS7003;11789;53.482;9.862;2024-03-25T00:56:59;4.00;2.75;1.00
23240;PMS7003;11789;53.482;9.862;2024-03-25T00:59:24;4.00;1.25;0.50
23240;PMS7003;11789;53.482;9.862;2024-03-25T01:01:50;3.00;2.00;1.00
23240;PMS7003;11789;53.482;9.862;2024-03-25T01:04:15;2.50;1.00;1.00
23240;PMS7003;11789;53.482;9.862;2024-03-25T01:06:41;3.75;2.00;1.00
23240;PMS7003;11789;53.482;9.862;2024-03-25T01:09:06;1.00;1.00;0.50
23240;PMS7003;11789;53.482;9.862;2024-03-25T01:11:33;2.00;0.00;0.00
23240;PMS7003;11789;53.482;9.862;2024-03-25T01:13:58;2.00;1.00;1.00
23240;PMS7003;11789;53.482;9.862;2024-03-25T01:16:24;1.00;1.00;1.00
23240;PMS7003;11789;53.482;9.862;2024-03-25T01:18:49;0.75;0.00;0.00
23240;PMS7003;11789;53.482;9.862;2024-03-25T01:21:15;2.75;2.00;1.00
23240;PMS7003;11789;53.482;9.862;2024-03-25T01:23:40;5.00;3.00;1.00
23240;PMS7003;11789;53.482;9.862;2024-03-25T01:26:06;1.00;1.00;1.00
23240;PMS7003;11789;53.482;9.862;2024-03-25T01:28:31;1.00;1.00;0.50
23240;PMS7003;11789;53.482;9.862;2024-03-25T01:30:57;0.50;0.50;0.00
23240;PMS7003;11789;53.482;9.862;2024-03-25T01:33:23;2.00;1.00;0.25
23240;PMS7003;11789;53.482;9.862;2024-03-25T01:35:48;1.50;1.25;0.50
23240;PMS7003;11789;53.482;9.862;2024-03-25T01:38:14;1.00;1.00;1.00
23240;PMS7003;11789;53.482;9.862;2024-03-25T01:40:39;1.00;1.00;1.00
23240;PMS7003;11789;53.482;9.862;2024-03-25T01:43:05;4.50;1.00;1.00
23240;PMS7003;11789;53.482;9.862;2024-03-25T01:45:31;9.75;2.75;1.00
23240;PMS7003;11789;53.482;9.862;2024-03-25T01:47:59;1.75;1.00;1.00
23240;PMS7003;11789;53.482;9.862;2024-03-25T01:50:27;3.00;1.00;1.00
23240;PMS7003;11789;53.482;9.862;2024-03-25T01:52:54;3.00;1.00;1.00
23240;PMS7003;11789;53.482;9.862;2024-03-25T01:55:22;0.25;0.25;0.00
23240;PMS7003;11789;53.482;9.862;2024-03-25T01:57:51;0.75;0.75;0.25
23240;PMS7003;11789;53.482;9.862;2024-03-25T02:00:17;2.50;1.75;1.00
23240;PMS7003;11789;53.482;9.862;2024-03-25T02:02:44;1.00;1.00;1.00
23240;PMS7003;11789;53.482;9.862;2024-03-25T02:05:11;3.00;1.00;0.25
23240;PMS7003;11789;53.482;9.862;2024-03-25T02:07:37;2.50;1.75;1.00
23240;PMS7003;11789;53.482;9.862;2024-03-25T02:10:03;1.00;1.00;0.25
23240;PMS7003;11789;53.482;9.862;2024-03-25T02:12:32;1.00;1.00;0.00
23240;PMS7003;11789;53.482;9.862;2024-03-25T02:14:59;3.00;1.50;1.00
23240;PMS7003;11789;53.482;9.862;2024-03-25T02:17:24;1.00;1.00;1.00
23240;PMS7003;11789;53.482;9.862;2024-03-25T02:19:50;1.25;1.25;0.50
23240;PMS7003;11789;53.482;9.862;2024-03-25T02:22:16;2.00;0.75;0.50
23240;PMS7003;11789;53.482;9.862;2024-03-25T02:24:42;1.00;1.00;0.00
23240;PMS7003;11789;53.482;9.862;2024-03-25T02:27:10;1.25;0.25;0.00
23240;PMS7003;11789;53.482;9.862;2024-03-25T02:29:39;3.25;1.00;1.00
23240;PMS7003;11789;53.482;9.862;2024-03-25T02:32:06;2.25;1.75;0.00
23240;PMS7003;11789;53.482;9.862;2024-03-25T02:34:32;1.50;1.00;0.75
23240;PMS7003;11789;53.482;9.862;2024-03-25T02:36:58;1.00;1.00;1.00
23240;PMS7003;11789;53.482;9.862;2024-03-25T02:39:23;1.50;1.50;1.00
23240;PMS7003;11789;53.482;9.862;2024-03-25T02:41:49;2.00;1.00;0.00
23240;PMS7003;11789;53.482;9.862;2024-03-25T02:44:15;3.50;1.50;1.00
23240;PMS7003;11789;53.482;9.862;2024-03-25T02:46:41;1.50;0.00;0.00
23240;PMS7003;11789;53.482;9.862;2024-03-25T02:49:08;1.00;1.00;0.00
23240;PMS7003;11789;53.482;9.862;2024-03-25T02:51:33;4.00;1.00;0.00
23240;PMS7003;11789;53.482;9.862;2024-03-25T02:53:59;0.75;0.75;0.00
23240;PMS7003;11789;53.482;9.862;2024-03-25T02:56:24;2.50;0.00;0.00
23240;PMS7003;11789;53.482;9.862;2024-03-25T02:58:49;1.75;1.00;0.50
23240;PMS7003;11789;53.482;9.862;2024-03-25T03:01:15;0.00;0.00;0.00
23240;PMS7003;11789;53.482;9.862;2024-03-25T03:03:42;0.00;0.00;0.00
23240;PMS7003;11789;53.482;9.862;2024-03-25T03:06:07;3.00;1.00;0.25
23240;PMS7003;11789;53.482;9.862;2024-03-25T03:08:32;2.00;0.50;0.00
23240;PMS7003;11789;53.482;9.862;2024-03-25T03:10:58;2.00;2.00;1.00
23240;PMS7003;11789;53.482;9.862;2024-03-25T03:13:23;2.50;1.00;1.00
23240;PMS7003;11789;53.482;9.862;2024-03-25T03:15:49;2.00;2.00;1.00
23240;PMS7003;11789;53.482;9.862;2024-03-25T03:18:14;2.50;0.75;0.00
23240;PMS7003;11789;53.482;9.862;2024-03-25T03:20:39;1.00;1.00;1.00
23240;PMS7003;11789;53.482;9.862;2024-03-25T03:23:05;3.50;1.00;1.00
23240;PMS7003;11789;53.482;9.862;2024-03-25T03:25:30;0.75;0.75;0.00
23240;PMS7003;11789;53.482;9.862;2024-03-25T03:27:56;4.00;1.00;1.00
23240;PMS7003;11789;53.482;9.862;2024-03-25T03:30:21;1.00;1.00;1.00
23240;PMS7003;11789;53.482;9.862;2024-03-25T03:32:47;2.25;1.00;0.00
23240;PMS7003;11789;53.482;9.862;2024-03-25T03:35:12;1.00;1.00;0.00
23240;PMS7003;11789;53.482;9.862;2024-03-25T03:37:38;0.75;0.00;0.00
23240;PMS7003;11789;53.482;9.862;2024-03-25T03:40:03;1.00;1.00;1.00
23240;PMS7003;11789;53.482;9.862;2024-03-25T03:42:32;1.00;1.00;1.00
23240;PMS7003;11789;53.482;9.862;2024-03-25T03:44:58;1.75;1.00;0.50
23240;PMS7003;11789;53.482;9.862;2024-03-25T03:47:23;2.00;0.50;0.00
23240;PMS7003;11789;53.482;9.862;2024-03-25T03:49:49;2.00;0.50;0.50
23240;PMS7003;11789;53.482;9.862;2024-03-25T03:52:14;2.50;1.00;0.00
23240;PMS7003;11789;53.482;9.862;2024-03-25T03:54:39;1.00;1.00;1.00
23240;PMS7003;11789;53.482;9.862;2024-03-25T03:57:05;0.00;0.00;0.00
23240;PMS7003;11789;53.482;9.862;2024-03-25T03:59:31;0.00;0.00;0.00
23240;PMS7003;11789;53.482;9.862;2024-03-25T04:01:56;1.75;0.00;0.00
23240;PMS7003;11789;53.482;9.862;2024-03-25T04:04:22;0.00;0.00;0.00
23240;PMS7003;11789;53.482;9.862;2024-03-25T04:06:48;0.25;0.25;0.00
23240;PMS7003;11789;53.482;9.862;2024-03-25T04:09:13;0.00;0.00;0.00
23240;PMS7003;11789;53.482;9.862;2024-03-25T04:11:39;2.50;1.75;1.00
23240;PMS7003;11789;53.482;9.862;2024-03-25T04:14:04;1.75;0.00;0.00
23240;PMS7003;11789;53.482;9.862;2024-03-25T04:16:31;1.00;1.00;0.00
23240;PMS7003;11789;53.482;9.862;2024-03-25T04:18:56;1.00;1.00;0.75
23240;PMS7003;11789;53.482;9.862;2024-03-25T04:21:22;1.75;1.00;0.00
23240;PMS7003;11789;53.482;9.862;2024-03-25T04:23:48;1.00;1.00;0.25
23240;PMS7003;11789;53.482;9.862;2024-03-25T04:26:14;2.00;0.00;0.00
23240;PMS7003;11789;53.482;9.862;2024-03-25T04:28:40;1.50;1.00;0.75
23240;PMS7003;11789;53.482;9.862;2024-03-25T04:31:07;2.00;0.00;0.00
23240;PMS7003;11789;53.482;9.862;2024-03-25T04:33:33;2.25;1.00;1.00
23240;PMS7003;11789;53.482;9.862;2024-03-25T04:35:59;2.00;1.00;0.75
23240;PMS7003;11789;53.482;9.862;2024-03-25T04:38:24;0.25;0.25;0.25
23240;PMS7003;11789;53.482;9.862;2024-03-25T04:40:50;3.00;1.25;0.25
23240;PMS7003;11789;53.482;9.862;2024-03-25T04:43:15;1.00;1.00;0.25
23240;PMS7003;11789;53.482;9.862;2024-03-25T04:45:41;2.50;1.25;1.00
23240;PMS7003;11789;53.482;9.862;2024-03-25T04:48:07;0.75;0.75;0.25
23240;PMS7003;11789;53.482;9.862;2024-03-25T04:50:35;2.50;1.25;1.00
23240;PMS7003;11789;53.482;9.862;2024-03-25T04:53:00;0.75;0.75;0.00
23240;PMS7003;11789;53.482;9.862;2024-03-25T04:55:26;4.50;1.25;1.00
23240;PMS7003;11789;53.482;9.862;2024-03-25T04:57:51;1.00;1.00;1.00
23240;PMS7003;11789;53.482;9.862;2024-03-25T05:00:17;2.75;2.00;1.00
23240;PMS7003;11789;53.482;9.862;2024-03-25T05:02:43;1.00;1.00;1.00
23240;PMS7003;11789;53.482;9.862;2024-03-25T05:05:08;1.00;1.00;1.00
23240;PMS7003;11789;53.482;9.862;2024-03-25T05:07:35;1.00;1.00;0.25
23240;PMS7003;11789;53.482;9.862;2024-03-25T05:10:01;3.50;1.00;0.00
23240;PMS7003;11789;53.482;9.862;2024-03-25T05:12:26;1.50;1.50;1.00
23240;PMS7003;11789;53.482;9.862;2024-03-25T05:14:55;2.75;1.00;1.00
23240;PMS7003;11789;53.482;9.862;2024-03-25T05:17:21;1.00;1.00;0.25
23240;PMS7003;11789;53.482;9.862;2024-03-25T05:19:46;0.75;0.75;0.25
23240;PMS7003;11789;53.482;9.862;2024-03-25T05:22:12;2.00;1.00;0.25
23240;PMS7003;11789;53.482;9.862;2024-03-25T05:24:37;1.00;1.00;1.00
23240;PMS7003;11789;53.482;9.862;2024-03-25T05:27:03;2.00;0.00;0.00
23240;PMS7003;11789;53.482;9.862;2024-03-25T05:29:28;1.25;1.25;1.00
23240;PMS7003;11789;53.482;9.862;2024-03-25T05:32:00;1.50;1.50;1.00
23240;PMS7003;11789;53.482;9.862;2024-03-25T05:34:27;3.00;1.50;1.00
23240;PMS7003;11789;53.482;9.862;2024-03-25T05:36:53;1.50;0.75;0.25
23240;PMS7003;11789;53.482;9.862;2024-03-25T05:39:19;2.75;1.00;1.00
23240;PMS7003;11789;53.482;9.862;2024-03-25T05:41:45;1.50;1.50;0.75
23240;PMS7003;11789;53.482;9.862;2024-03-25T05:44:12;1.00;1.00;0.25
23240;PMS7003;11789;53.482;9.862;2024-03-25T05:46:38;1.25;1.00;1.00
23240;PMS7003;11789;53.482;9.862;2024-03-25T05:49:05;1.00;1.00;1.00
23240;PMS7003;11789;53.482;9.862;2024-03-25T05:51:31;2.25;1.00;1.00
23240;PMS7003;11789;53.482;9.862;2024-03-25T05:53:58;1.25;1.25;0.50
23240;PMS7003;11789;53.482;9.862;2024-03-25T05:56:24;2.50;1.00;1.00
23240;PMS7003;11789;53.482;9.862;2024-03-25T05:58:58;0.50;0.00;0.00
23240;PMS7003;11789;53.482;9.862;2024-03-25T06:01:25;2.00;2.00;1.00
23240;PMS7003;11789;53.482;9.862;2024-03-25T06:03:51;1.50;1.50;1.00
23240;PMS7003;11789;53.482;9.862;2024-03-25T06:06:16;2.00;2.00;1.00
23240;PMS7003;11789;53.482;9.862;2024-03-25T06:08:42;2.00;2.00;1.00
23240;PMS7003;11789;53.482;9.862;2024-03-25T06:11:08;1.50;1.50;1.00
23240;PMS7003;11789;53.482;9.862;2024-03-25T06:13:34;4.00;1.00;1.00
23240;PMS7003;11789;53.482;9.862;2024-03-25T06:16:00;1.50;1.50;1.00
23240;PMS7003;11789;53.482;9.862;2024-03-25T06:18:27;3.50;2.00;1.00
23240;PMS7003;11789;53.482;9.862;2024-03-25T06:20:52;3.00;1.00;1.00
23240;PMS7003;11789;53.482;9.862;2024-03-25T06:23:24;4.75;3.00;2.00
23240;PMS7003;11789;53.482;9.862;2024-03-25T06:25:51;2.25;2.25;1.25
23240;PMS7003;11789;53.482;9.862;2024-03-25T06:28:18;3.50;2.50;1.75
23240;PMS7003;11789;53.482;9.862;2024-03-25T06:30:45;2.00;2.00;1.50
23240;PMS7003;11789;53.482;9.862;2024-03-25T06:33:32;3.00;3.00;2.00
23240;PMS7003;11789;53.482;9.862;2024-03-25T06:36:17;4.00;3.75;2.00
23240;PMS7003;11789;53.482;9.862;2024-03-25T06:38:43;5.00;5.00;3.00
23240;PMS7003;11789;53.482;9.862;2024-03-25T06:41:09;6.50;3.00;2.25
23240;PMS7003;11789;53.482;9.862;2024-03-25T06:43:35;4.50;3.25;2.00
23240;PMS7003;11789;53.482;9.862;2024-03-25T06:46:03;8.25;4.25;3.00
23240;PMS7003;11789;53.482;9.862;2024-03-25T06:48:29;3.25;3.25;2.25
23240;PMS7003;11789;53.482;9.862;2024-03-25T06:50:55;4.50;4.50;2.75
23240;PMS7003;11789;53.482;9.862;2024-03-25T06:53:22;7.25;5.00;3.00
23240;PMS7003;11789;53.482;9.862;2024-03-25T06:55:54;3.00;3.00;2.00
23240;PMS7003;11789;53.482;9.862;2024-03-25T06:58:21;3.00;3.00;2.00
23240;PMS7003;11789;53.482;9.862;2024-03-25T07:00:48;4.00;4.00;3.00
23240;PMS7003;11789;53.482;9.862;2024-03-25T07:03:17;6.50;4.00;2.75
23240;PMS7003;11789;53.482;9.862;2024-03-25T07:05:44;3.75;3.75;2.00
23240;PMS7003;11789;53.482;9.862;2024-03-25T07:08:11;5.75;4.00;3.00
23240;PMS7003;11789;53.482;9.862;2024-03-25T07:10:37;5.50;4.25;3.00
23240;PMS7003;11789;53.482;9.862;2024-03-25T07:13:03;8.00;4.00;2.00
23240;PMS7003;11789;53.482;9.862;2024-03-25T07:15:31;8.25;4.00;2.75
23240;PMS7003;11789;53.482;9.862;2024-03-25T07:17:56;5.00;4.00;2.25
23240;PMS7003;11789;53.482;9.862;2024-03-25T07:20:22;10.75;5.25;3.00
23240;PMS7003;11789;53.482;9.862;2024-03-25T07:22:48;7.25;4.00;1.75
23240;PMS7003;11789;53.482;9.862;2024-03-25T07:25:14;9.25;4.00;3.00
23240;PMS7003;11789;53.482;9.862;2024-03-25T07:27:39;2.75;2.75;2.25
23240;PMS7003;11789;53.482;9.862;2024-03-25T07:30:06;8.25;4.25;2.00
23240;PMS7003;11789;53.482;9.862;2024-03-25T07:32:35;4.00;4.00;3.00
23240;PMS7003;11789;53.482;9.862;2024-03-25T07:35:00;2.75;2.75;2.00
23240;PMS7003;11789;53.482;9.862;2024-03-25T07:37:26;4.00;3.00;2.25
23240;PMS7003;11789;53.482;9.862;2024-03-25T07:39:52;6.50;4.00;3.00
23240;PMS7003;11789;53.482;9.862;2024-03-25T07:42:17;6.00;4.50;3.00
23240;PMS7003;11789;53.482;9.862;2024-03-25T07:44:43;6.25;4.00;3.00
23240;PMS7003;11789;53.482;9.862;2024-03-25T07:47:08;6.00;4.75;3.50
23240;PMS7003;11789;53.482;9.862;2024-03-25T07:49:34;4.00;3.00;2.75
23240;PMS7003;11789;53.482;9.862;2024-03-25T07:52:00;6.00;4.75;3.50
23240;PMS7003;11789;53.482;9.862;2024-03-25T07:54:26;3.25;2.50;2.00
23240;PMS7003;11789;53.482;9.862;2024-03-25T07:56:52;4.50;3.00;2.25
23240;PMS7003;11789;53.482;9.862;2024-03-25T07:59:18;5.25;4.50;2.25
23240;PMS7003;11789;53.482;9.862;2024-03-25T08:01:44;4.75;4.00;2.75
23240;PMS7003;11789;53.482;9.862;2024-03-25T08:04:10;9.00;6.75;4.00
23240;PMS7003;11789;53.482;9.862;2024-03-25T08:06:35;9.00;3.50;2.50
23240;PMS7003;11789;53.482;9.862;2024-03-25T08:09:01;4.00;4.00;3.00
23240;PMS7003;11789;53.482;9.862;2024-03-25T08:11:30;5.00;3.75;3.00
23240;PMS7003;11789;53.482;9.862;2024-03-25T08:13:56;4.00;4.00;3.00
23240;PMS7003;11789;53.482;9.862;2024-03-25T08:16:21;3.00;3.00;2.25
23240;PMS7003;11789;53.482;9.862;2024-03-25T08:18:47;3.50;3.00;2.00
23240;PMS7003;11789;53.482;9.862;2024-03-25T08:21:12;8.50;5.00;3.00
23240;PMS7003;11789;53.482;9.862;2024-03-25T08:23:38;6.75;4.00;3.00
23240;PMS7003;11789;53.482;9.862;2024-03-25T08:26:03;3.00;3.00;2.00
23240;PMS7003;11789;53.482;9.862;2024-03-25T08:28:29;3.50;1.00;1.00
23240;PMS7003;11789;53.482;9.862;2024-03-25T08:30:54;3.75;2.75;2.00
23240;PMS7003;11789;53.482;9.862;2024-03-25T08:33:20;6.00;3.00;2.00
23240;PMS7003;11789;53.482;9.862;2024-03-25T08:35:45;5.00;2.00;1.00
23240;PMS7003;11789;53.482;9.862;2024-03-25T08:38:11;2.75;2.75;1.25
23240;PMS7003;11789;53.482;9.862;2024-03-25T08:40:36;2.00;2.00;2.00
23240;PMS7003;11789;53.482;9.862;2024-03-25T08:43:02;5.50;2.00;1.00
23240;PMS7003;11789;53.482;9.862;2024-03-25T08:45:27;3.50;2.00;1.50
23240;PMS7003;11789;53.482;9.862;2024-03-25T08:47:53;5.75;2.00;1.00
23240;PMS7003;11789;53.482;9.862;2024-03-25T08:50:18;2.00;2.00;1.00
23240;PMS7003;11789;53.482;9.862;2024-03-25T08:52:44;2.00;2.00;1.25
23240;PMS7003;11789;53.482;9.862;2024-03-25T08:55:09;1.25;1.25;1.00
23240;PMS7003;11789;53.482;9.862;2024-03-25T08:57:35;5.75;2.50;1.25
23240;PMS7003;11789;53.482;9.862;2024-03-25T09:00:00;1.00;1.00;1.00
23240;PMS7003;11789;53.482;9.862;2024-03-25T09:02:26;2.50;2.00;1.00
23240;PMS7003;11789;53.482;9.862;2024-03-25T09:04:51;6.25;2.25;2.00
23240;PMS7003;11789;53.482;9.862;2024-03-25T09:07:17;3.25;1.00;0.50
23240;PMS7003;11789;53.482;9.862;2024-03-25T09:09:43;1.25;1.25;1.00
23240;PMS7003;11789;53.482;9.862;2024-03-25T09:12:27;3.75;2.00;1.00
23240;PMS7003;11789;53.482;9.862;2024-03-25T09:14:53;6.00;2.00;1.25
23240;PMS7003;11789;53.482;9.862;2024-03-25T09:17:18;4.25;3.00;1.00
23240;PMS7003;11789;53.482;9.862;2024-03-25T09:19:44;1.25;1.25;1.00
23240;PMS7003;11789;53.482;9.862;2024-03-25T09:22:09;4.00;2.00;1.00
23240;PMS7003;11789;53.482;9.862;2024-03-25T09:24:35;3.75;1.50;1.00
23240;PMS7003;11789;53.482;9.862;2024-03-25T09:27:00;1.25;1.25;1.00
23240;PMS7003;11789;53.482;9.862;2024-03-25T09:29:26;4.75;2.00;1.00
23240;PMS7003;11789;53.482;9.862;2024-03-25T09:31:51;3.00;1.00;1.00
23240;PMS7003;11789;53.482;9.862;2024-03-25T09:34:16;3.50;2.00;1.50
23240;PMS7003;11789;53.482;9.862;2024-03-25T09:36:42;3.25;3.00;1.00
23240;PMS7003;11789;53.482;9.862;2024-03-25T09:39:07;2.75;2.00;1.00
23240;PMS7003;11789;53.482;9.862;2024-03-25T09:41:34;5.75;2.00;1.00
23240;PMS7003;11789;53.482;9.862;2024-03-25T09:44:01;3.00;1.00;1.00
23240;PMS7003;11789;53.482;9.862;2024-03-25T09:46:30;1.00;1.00;1.00
23240;PMS7003;11789;53.482;9.862;2024-03-25T09:48:56;3.75;2.50;1.00
23240;PMS7003;11789;53.482;9.862;2024-03-25T09:51:21;3.75;2.00;1.00
23240;PMS7003;11789;53.482;9.862;2024-03-25T09:53:47;4.50;2.00;2.00
23240;PMS7003;11789;53.482;9.862;2024-03-25T09:56:13;4.25;3.00;2.00
23240;PMS7003;11789;53.482;9.862;2024-03-25T09:58:39;3.75;2.00;1.75
23240;PMS7003;11789;53.482;9.862;2024-03-25T10:01:05;4.00;1.50;1.00
23240;PMS7003;11789;53.482;9.862;2024-03-25T10:03:31;1.50;1.00;1.00
23240;PMS7003;11789;53.482;9.862;2024-03-25T10:05:56;2.50;2.50;1.50
23240;PMS7003;11789;53.482;9.862;2024-03-25T10:08:22;3.00;2.00;2.00
23240;PMS7003;11789;53.482;9.862;2024-03-25T10:10:48;1.25;1.25;1.00
23240;PMS7003;11789;53.482;9.862;2024-03-25T10:13:15;2.00;2.00;1.50
23240;PMS7003;11789;53.482;9.862;2024-03-25T10:15:41;3.00;1.50;1.00
23240;PMS7003;11789;53.482;9.862;2024-03-25T10:18:07;3.00;1.75;0.75
23240;PMS7003;11789;53.482;9.862;2024-03-25T10:20:33;4.50;2.00;1.00
23240;PMS7003;11789;53.482;9.862;2024-03-25T10:22:59;2.00;2.00;1.00
23240;PMS7003;11789;53.482;9.862;2024-03-25T10:25:29;3.75;1.75;1.00
23240;PMS7003;11789;53.482;9.862;2024-03-25T10:27:56;3.00;1.00;1.00
23240;PMS7003;11789;53.482;9.862;2024-03-25T10:30:23;1.75;1.00;0.50
23240;PMS7003;11789;53.482;9.862;2024-03-25T10:35:25;1.00;1.00;0.00
23240;PMS7003;11789;53.482;9.862;2024-03-25T10:37:53;3.00;1.25;0.00
23240;PMS7003;11789;53.482;9.862;2024-03-25T10:40:22;3.75;1.00;0.00
23240;PMS7003;11789;53.482;9.862;2024-03-25T10:42:53;4.00;2.00;1.75
23240;PMS7003;11789;53.482;9.862;2024-03-25T10:45:25;2.75;1.00;1.00
23240;PMS7003;11789;53.482;9.862;2024-03-25T10:47:54;1.50;1.00;1.00
23240;PMS7003;11789;53.482;9.862;2024-03-25T10:50:24;1.25;1.00;0.75
23240;PMS7003;11789;53.482;9.862;2024-03-25T10:52:53;2.75;1.25;1.00
23240;PMS7003;11789;53.482;9.862;2024-03-25T10:55:19;4.00;1.00;0.75
23240;PMS7003;11789;53.482;9.862;2024-03-25T10:57:47;5.00;2.00;1.00
23240;PMS7003;11789;53.482;9.862;2024-03-25T11:00:14;5.00;2.50;1.75
23240;PMS7003;11789;53.482;9.862;2024-03-25T11:02:44;4.00;2.00;1.00
23240;PMS7003;11789;53.482;9.862;2024-03-25T11:05:10;3.00;1.25;1.00
23240;PMS7003;11789;53.482;9.862;2024-03-25T11:07:37;4.25;1.00;0.00
23240;PMS7003;11789;53.482;9.862;2024-03-25T11:10:05;1.75;1.00;0.75
23240;PMS7003;11789;53.482;9.862;2024-03-25T11:12:36;0.50;0.50;0.00
23240;PMS7003;11789;53.482;9.862;2024-03-25T11:15:03;2.50;1.00;1.00
23240;PMS7003;11789;53.482;9.862;2024-03-25T11:17:31;1.50;0.75;0.50
23240;PMS7003;11789;53.482;9.862;2024-03-25T11:20:10;1.00;1.00;1.00
23240;PMS7003;11789;53.482;9.862;2024-03-25T11:22:51;1.00;1.00;0.75
23240;PMS7003;11789;53.482;9.862;2024-03-25T11:25:20;0.00;0.00;0.00
23240;PMS7003;11789;53.482;9.862;2024-03-25T11:27:46;0.00;0.00;0.00
23240;PMS7003;11789;53.482;9.862;2024-03-25T11:30:13;2.75;1.00;0.00
23240;PMS7003;11789;53.482;9.862;2024-03-25T11:32:43;2.25;2.00;1.00
23240;PMS7003;11789;53.482;9.862;2024-03-25T11:35:10;1.25;1.25;0.25
23240;PMS7003;11789;53.482;9.862;2024-03-25T11:37:42;1.50;0.00;0.00
23240;PMS7003;11789;53.482;9.862;2024-03-25T11:40:09;1.00;1.00;0.00
23240;PMS7003;11789;53.482;9.862;2024-03-25T11:42:38;3.25;0.25;0.00
23240;PMS7003;11789;53.482;9.862;2024-03-25T11:45:07;2.25;1.00;0.25
23240;PMS7003;11789;53.482;9.862;2024-03-25T11:47:46;0.50;0.50;0.50
23240;PMS7003;11789;53.482;9.862;2024-03-25T11:50:16;2.50;2.00;1.00
23240;PMS7003;11789;53.482;9.862;2024-03-25T11:52:43;1.75;1.00;1.00
23240;PMS7003;11789;53.482;9.862;2024-03-25T11:55:10;4.00;0.75;0.00
23240;PMS7003;11789;53.482;9.862;2024-03-25T11:57:37;1.75;0.75;0.75
23240;PMS7003;11789;53.482;9.862;2024-03-25T12:00:03;0.25;0.25;0.00
23240;PMS7003;11789;53.482;9.862;2024-03-25T12:02:35;1.00;1.00;1.00
23240;PMS7003;11789;53.482;9.862;2024-03-25T12:05:02;1.00;1.00;0.75
23240;PMS7003;11789;53.482;9.862;2024-03-25T12:07:30;2.25;1.00;0.75
23240;PMS7003;11789;53.482;9.862;2024-03-25T12:09:57;0.25;0.25;0.00
23240;PMS7003;11789;53.482;9.862;2024-03-25T12:12:41;1.00;1.00;1.00
23240;PMS7003;11789;53.482;9.862;2024-03-25T12:15:08;2.75;1.00;0.25
23240;PMS7003;11789;53.482;9.862;2024-03-25T12:17:34;1.00;1.00;1.00
23240;PMS7003;11789;53.482;9.862;2024-03-25T12:20:04;3.50;2.00;1.00
23240;PMS7003;11789;53.482;9.862;2024-03-25T12:22:34;2.50;1.00;1.00
23240;PMS7003;11789;53.482;9.862;2024-03-25T12:25:03;2.75;1.00;1.00
23240;PMS7003;11789;53.482;9.862;2024-03-25T12:27:31;3.50;1.75;1.00
23240;PMS7003;11789;53.482;9.862;2024-03-25T12:29:58;2.00;2.00;1.00
23240;PMS7003;11789;53.482;9.862;2024-03-25T12:32:31;3.00;1.25;1.00
23240;PMS7003;11789;53.482;9.862;2024-03-25T12:35:07;3.00;2.00;1.00
23240;PMS7003;11789;53.482;9.862;2024-03-25T12:37:33;1.00;1.00;0.00
23240;PMS7003;11789;53.482;9.862;2024-03-25T12:39:59;2.25;1.00;0.50
23240;PMS7003;11789;53.482;9.862;2024-03-25T12:42:25;0.75;0.75;0.50
23240;PMS7003;11789;53.482;9.862;2024-03-25T12:44:55;1.75;1.50;1.00
23240;PMS7003;11789;53.482;9.862;2024-03-25T12:47:21;3.00;1.00;1.00
23240;PMS7003;11789;53.482;9.862;2024-03-25T12:49:48;1.25;1.25;1.00
23240;PMS7003;11789;53.482;9.862;2024-03-25T12:52:14;1.00;1.00;1.00
23240;PMS7003;11789;53.482;9.862;2024-03-25T12:54:39;1.00;1.00;1.00
23240;PMS7003;11789;53.482;9.862;2024-03-25T12:57:06;1.00;1.00;0.00
23240;PMS7003;11789;53.482;9.862;2024-03-25T12:59:32;1.00;1.00;0.00
23240;PMS7003;11789;53.482;9.862;2024-03-25T13:01:58;4.00;1.00;0.50
23240;PMS7003;11789;53.482;9.862;2024-03-25T13:04:24;1.00;1.00;0.50
23240;PMS7003;11789;53.482;9.862;2024-03-25T13:06:49;2.00;1.00;0.75
23240;PMS7003;11789;53.482;9.862;2024-03-25T13:09:15;1.00;1.00;0.25
23240;PMS7003;11789;53.482;9.862;2024-03-25T13:11:40;0.50;0.50;0.00
23240;PMS7003;11789;53.482;9.862;2024-03-25T13:14:06;3.00;0.50;0.00
23240;PMS7003;11789;53.482;9.862;2024-03-25T13:16:35;1.00;1.00;1.00
23240;PMS7003;11789;53.482;9.862;2024-03-25T13:19:00;1.00;1.00;1.00
23240;PMS7003;11789;53.482;9.862;2024-03-25T13:21:26;1.25;1.25;1.00
23240;PMS7003;11789;53.482;9.862;2024-03-25T13:23:52;1.25;1.25;1.00
23240;PMS7003;11789;53.482;9.862;2024-03-25T13:26:17;3.75;2.75;1.75
23240;PMS7003;11789;53.482;9.862;2024-03-25T13:28:43;1.75;1.75;1.00
23240;PMS7003;11789;53.482;9.862;2024-03-25T13:31:09;2.00;2.00;1.25
23240;PMS7003;11789;53.482;9.862;2024-03-25T13:33:34;3.25;2.00;2.00
23240;PMS7003;11789;53.482;9.862;2024-03-25T13:36:01;2.00;2.00;1.00
23240;PMS7003;11789;53.482;9.862;2024-03-25T13:38:28;3.00;3.00;2.00
23240;PMS7003;11789;53.482;9.862;2024-03-25T13:40:55;4.00;3.00;2.00
23240;PMS7003;11789;53.482;9.862;2024-03-25T13:43:21;7.75;5.00;3.00
23240;PMS7003;11789;53.482;9.862;2024-03-25T13:45:47;11.50;9.00;6.25
23240;PMS7003;11789;53.482;9.862;2024-03-25T13:48:14;6.00;6.00;4.25
23240;PMS7003;11789;53.482;9.862;2024-03-25T13:50:41;4.00;3.25;2.00
23240;PMS7003;11789;53.482;9.862;2024-03-25T13:53:07;4.00;4.00;3.00
23240;PMS7003;11789;53.482;9.862;2024-03-25T13:55:33;4.75;3.25;2.00
23240;PMS7003;11789;53.482;9.862;2024-03-25T13:57:59;5.00;5.00;3.00
23240;PMS7003;11789;53.482;9.862;2024-03-25T14:00:25;2.50;2.50;2.00
23240;PMS7003;11789;53.482;9.862;2024-03-25T14:02:54;5.75;4.00;3.00
23240;PMS7003;11789;53.482;9.862;2024-03-25T14:05:20;2.75;2.00;1.00
23240;PMS7003;11789;53.482;9.862;2024-03-25T14:07:48;2.00;2.00;1.75
23240;PMS7003;11789;53.482;9.862;2024-03-25T14:10:14;1.75;1.00;1.00
23240;PMS7003;11789;53.482;9.862;2024-03-25T14:12:39;7.00;5.75;4.00
23240;PMS7003;11789;53.482;9.862;2024-03-25T14:15:05;2.00;2.00;1.00
23240;PMS7003;11789;53.482;9.862;2024-03-25T14:17:31;1.50;1.50;1.50
23240;PMS7003;11789;53.482;9.862;2024-03-25T14:19:57;3.25;2.00;1.00
23240;PMS7003;11789;53.482;9.862;2024-03-25T14:22:23;1.00;1.00;1.00